Погода Гостычинна 2 недели

Западнопоморское воеводство, Польша

15 - 28 июля
  • 15июля
    Сегодня
    +18°
    +28°
    Практически безоблачно
    ВремяПогодаТемператураВлажностьДавлениеВетер, м/сВероятность осадков
    02:00Небольшая облачность+17°C89 %756 мм2.5 м/с2 %
    05:00Практически безоблачно+16°C95 %756 мм2.3 м/с2 %
    08:00Ясно и безоблачно+20°C82 %757 мм1.8 м/с2 %
    11:00Практически безоблачно+25°C50 %757 мм2.9 м/с2 %
    14:00Практически безоблачно+26°C50 %756 мм2.9 м/с2 %
    17:00Практически безоблачно+28°C42 %755 мм2.7 м/с9 %
    20:00Облачно с прояснениями+24°C63 %755 мм2.4 м/с2 %
    23:00Ясно и безоблачно+21°C62 %755 мм3.7 м/с2 %
  • 16июля
    Вторник
    +16°
    +24°
    Пасмурно, дождь
    ВремяПогодаТемператураВлажностьДавлениеВетер, м/сВероятность осадков
    02:00Практически безоблачно+19°C70 %754 мм3.9 м/с2 %
    05:00Ясно и безоблачно+18°C72 %754 мм4.6 м/с2 %
    08:00Облачно с прояснениями+22°C71 %753 мм4.5 м/с5 %
    11:00Пасмурно, дождь+23°C84 %754 мм1.6 м/с72 %
    14:00Пасмурно, дождь+23°C82 %754 мм3.4 м/с88 %
    17:00Пасмурно, небольшой дождь+23°C72 %753 мм3.5 м/с60 %
    20:00Практически безоблачно+23°C80 %754 мм3.2 м/с47 %
    23:00Ясно и безоблачно+19°C92 %755 мм2.1 м/с13 %
  • 17июля
    Среда
    +14°
    +24°
    Пасмурно, сплошная облачность
    ВремяПогодаТемператураВлажностьДавлениеВетер, м/сВероятность осадков
    02:00Ясно и безоблачно+17°C76 %756 мм2.9 м/с2 %
    05:00Ясно и безоблачно+16°C78 %757 мм3.3 м/с2 %
    08:00Ясно и безоблачно+19°C71 %758 мм4.6 м/с2 %
    11:00Практически безоблачно+22°C57 %759 мм5.0 м/с5 %
    14:00Пасмурно, сплошная облачность+23°C49 %759 мм6.9 м/с16 %
    17:00Облачно с прояснениями+24°C49 %760 мм5.5 м/с12 %
    20:00Ясно и безоблачно+21°C64 %760 мм2.7 м/с6 %
    23:00Ясно и безоблачно+17°C82 %761 мм2.2 м/с2 %
  • 18июля
    Четверг
    +14°
    +25°
    Облачно с прояснениями, небольшой дождь
    ВремяПогодаТемператураВлажностьДавлениеВетер, м/сВероятность осадков
    02:00Ясно и безоблачно+16°C87 %761 мм1.5 м/с2 %
    05:00Ясно и безоблачно+15°C90 %762 мм0.9 м/с2 %
    08:00Ясно и безоблачно+18°C78 %763 мм1.2 м/с2 %
    11:00Небольшая облачность+21°C61 %763 мм1.6 м/с4 %
    14:00Облачно с прояснениями, небольшой дождь+23°C55 %762 мм2.7 м/с14 %
    17:00Облачно с прояснениями+24°C56 %762 мм2.5 м/с10 %
    20:00Ясно и безоблачно+22°C71 %762 мм1.3 м/с4 %
    23:00Практически безоблачно+18°C86 %762 мм1.9 м/с2 %
  • 19июля
    Пятница
    +16°
    +26°
    Ясно и безоблачно
    ВремяПогодаТемператураВлажностьДавлениеВетер, м/сВероятность осадков
    02:00Ясно и безоблачно+16°C94 %762 мм1.9 м/с2 %
    05:00Ясно и безоблачно+15°C95 %762 мм1.6 м/с2 %
    08:00Ясно и безоблачно+19°C75 %763 мм0.8 м/с2 %
    11:00Ясно и безоблачно+23°C57 %762 мм1.1 м/с6 %
    14:00Ясно и безоблачно+25°C52 %761 мм1.8 м/с19 %
    17:00Ясно и безоблачно+25°C49 %760 мм1.3 м/с14 %
    20:00Практически безоблачно+23°C70 %759 мм0.6 м/с11 %
    23:00Облачно с прояснениями+19°C74 %759 мм2.8 м/с2 %
Мы используем cookies
Соглашаюсь